M I D A S
Marine Information and Data Acquisition System
Tripno 2103 of the Zeeleeuw from 2011-05-19 07:49:11 to 2011-05-19 13:01:09
Back to CruiseResearch ActivitiesStationsMapUnderway DataData graphs

EquipmentUnitsComment
TimeDGPSUTC
LatitudeDGPSDM.mWGS84
LongitudeDGPSDM.mWGS84
TemperatureSBE03/SBE38deg celciusITS90
ConductivitySBE21S/mITS90
SalinitySBE21 Practical Salinity Units
ChlorophylAChelsea fluorimeterg/lCalibrated in Aceton
Missing or incorrect values are displayed as -999
Sea surface data collected by the RV Zeeleeuw from 2011-05-19 07:50:55 to 2011-05-19 13:13:59
Time Latitude Longitude Temperature Conductivity Salinity ChlorophylA
2011-05-19 07:52:00 51°13.633 2°55.999 18.4804 0.06533 0.366719 -3.020363
2011-05-19 07:53:00 51°13.656 2°55.912 18.4912 0.065432 0.367328 -3.020363
2011-05-19 07:54:00 51°13.681 2°55.834 18.4897 0.06533 0.366759 -3.020363
2011-05-19 07:55:01 51°13.711 2°55.763 18.503 0.06533 0.366773 -3.020363
2011-05-19 07:56:00 51°13.767 2°55.686 18.514 0.06533 0.366793 -3.020363
2011-05-19 07:57:01 51°13.846 2°55.627 18.5245 0.06533 0.366813 -3.020363
2011-05-19 07:58:00 51°13.923 2°55.623 18.5395 0.06533 0.36684 -3.020363
2011-05-19 07:58:59 51°13.96 2°55.641 18.5484 0.06533 0.36686 -3.020363
2011-05-19 07:59:59 51°13.97 2°55.577 18.4563 0.06533 0.366766 -3.020363
2011-05-19 08:00:59 51°14.047 2°55.497 18.5414 0.06533 0.366833 -3.020363
2011-05-19 08:01:58 51°14.162 2°55.392 18.5341 0.06533 0.36686 -3.020363
2011-05-19 08:02:57 51°14.296 2°55.261 18.5107 0.06533 0.366874 -3.020363
2011-05-19 08:03:59 51°14.452 2°55.096 18.5207 0.06533 0.366894 -3.020363
2011-05-19 08:04:59 51°14.608 2°54.89 18.589 0.065432 0.36753 -3.020363
2011-05-19 08:05:58 51°14.677 2°54.571 18.6275 0.06533 0.367042 -3.020363
2011-05-19 08:06:56 51°14.568 2°54.263 18.5535 0.06533 0.366974 -3.020363
2011-05-19 08:07:57 51°14.42 2°53.957 18.5247 0.065432 0.367551 -3.020363
2011-05-19 08:08:56 51°14.31 2°53.624 18.5865 0.06533 0.367055 -3.020363
2011-05-19 08:09:56 51°14.157 2°53.327 18.5496 0.06533 0.367102 -3.020363
2011-05-19 08:10:56 51°14.002 2°53.027 15.4631 1.041155 6.827275 -3.020363
2011-05-19 08:11:57 51°13.857 2°52.706 15.0396 4.026507 32.103658 -3.020363
2011-05-19 08:12:57 51°13.721 2°52.382 14.9568 4.03615 32.48168 -3.020363
2011-05-19 08:13:57 51°13.58 2°52.062 14.9206 4.036669 32.552396 -3.020363
2011-05-19 08:14:57 51°13.442 2°51.742 14.8981 4.038639 32.615723 -3.020363
2011-05-19 08:15:56 51°13.317 2°51.416 14.8846 4.039572 32.644218 -3.020363
2011-05-19 08:16:56 51°13.182 2°51.091 14.8853 4.042889 32.686611 -3.020363
2011-05-19 08:17:55 51°13.064 2°50.752 14.8696 4.042164 32.689793 -3.020363
2011-05-19 08:18:55 51°12.937 2°50.414 14.8781 4.030556 32.58926 -3.020363
2011-05-19 08:19:56 51°12.829 2°50.053 14.8735 4.03522 32.630628 -3.020363
2011-05-19 08:20:56 51°12.713 2°49.703 14.8642 4.030245 32.587149 -3.020363
2011-05-19 08:21:56 51°12.609 2°49.339 14.8735 4.033769 32.627946 -3.020363
2011-05-19 08:22:57 51°12.487 2°48.984 14.8577 4.033147 32.61748 -3.020363
2011-05-19 08:23:57 51°12.383 2°48.625 14.8555 4.041438 32.702017 -3.020363
2011-05-19 08:24:57 51°12.275 2°48.272 14.8274 4.041024 32.703144 -3.020363
2011-05-19 08:25:57 51°12.182 2°47.907 14.7883 4.044859 32.76844 -3.020363
2011-05-19 08:26:56 51°12.085 2°47.552 14.7676 4.046725 32.812557 -3.020363
2011-05-19 08:27:56 51°12.016 2°47.171 14.7493 4.049938 32.860537 -3.020363
2011-05-19 08:28:56 51°11.945 2°46.788 14.7794 4.050975 32.876933 -3.020363
2011-05-19 08:29:56 51°11.892 2°46.399 14.7714 4.047658 32.825893 -3.020363
2011-05-19 08:30:57 51°11.828 2°46.008 14.7471 4.050457 32.864527 -3.020363
2011-05-19 08:31:56 51°11.788 2°45.63 14.6617 4.058023 32.96186 -3.020363
2011-05-19 08:32:57 51°11.732 2°45.245 14.6627 4.069943 33.128644 -3.020363
2011-05-19 08:33:56 51°11.701 2°44.875 14.5769 4.065797 33.088155 -3.020363
2011-05-19 08:34:56 51°11.658 2°44.511 14.4837 4.084974 33.358762 -3.020363
2011-05-19 08:35:57 51°11.629 2°44.139 14.4432 4.08995 33.470977 -3.020363
2011-05-19 08:36:57 51°11.599 2°43.776 14.4285 4.089951 33.499101 -3.020363
2011-05-19 08:37:56 51°11.556 2°43.424 14.4062 4.089329 33.508577 -3.020363
2011-05-19 08:38:56 51°11.525 2°43.062 14.3796 4.088811 33.52118 -3.020363
2011-05-19 08:39:56 51°11.483 2°42.704 14.3512 4.088293 33.538865 -3.020363
2011-05-19 08:40:56 51°11.435 2°42.344 14.3223 4.088086 33.559427 -3.020363
2011-05-19 08:41:57 51°11.345 2°41.998 14.3109 4.08819 33.58287 -3.020363
2011-05-19 08:42:57 51°11.243 2°41.663 14.3118 4.08819 33.587954 -3.020363
2011-05-19 08:43:56 51°11.121 2°41.35 14.3063 4.087672 33.588285 -3.020363
2011-05-19 08:44:57 51°11.01 2°41.01 14.2986 4.08902 33.602827 -3.020363
2011-05-19 08:45:56 51°10.89 2°40.694 14.2932 4.089538 33.61849 -3.020363
2011-05-19 08:46:57 51°10.787 2°40.345 14.3207 4.090367 33.621735 -3.020363
2011-05-19 08:47:55 51°10.685 2°40.011 14.3524 4.090263 33.596071 -3.020363
2011-05-19 08:48:56 51°10.577 2°39.657 14.352 4.0913 33.585974 -3.020363
2011-05-19 08:49:56 51°10.474 2°39.306 14.3525 4.091507 33.587148 -3.020363
2011-05-19 08:50:56 51°10.367 2°38.958 14.3464 4.092025 33.592623 -3.020363
2011-05-19 08:51:56 51°10.26 2°38.611 14.331 4.09244 33.604409 -3.020363
2011-05-19 08:52:56 51°10.15 2°38.265 14.3176 4.092336 33.617262 -3.020363
2011-05-19 08:53:57 51°10.046 2°37.905 14.3056 4.092337 33.626713 -3.020363
2011-05-19 08:54:57 51°9.934 2°37.558 14.2915 4.09244 33.639304 -3.020363
2011-05-19 08:55:57 51°9.835 2°37.2 14.2857 4.092544 33.648992 -3.020363
2011-05-19 08:56:56 51°9.723 2°36.862 14.2753 4.092855 33.660588 -3.020363
2011-05-19 08:57:57 51°9.649 2°36.611 14.2677 4.092959 33.666642 -3.020363
2011-05-19 08:58:57 51°9.594 2°36.48 14.2614 4.092648 33.672536 -3.020363
2011-05-19 08:59:57 51°9.542 2°36.422 14.269 4.092234 33.672374 -3.020363
2011-05-19 09:00:56 51°9.53 2°36.38 14.2667 4.093477 33.678694 -3.020363
2011-05-19 09:01:56 51°9.522 2°36.34 14.2476 4.093374 33.675554 -3.020363
2011-05-19 09:02:56 51°9.512 2°36.301 14.2625 4.089953 33.652883 -3.020363
2011-05-19 09:03:56 51°9.501 2°36.263 14.255 4.090057 33.647276 -3.020363
2011-05-19 09:04:56 51°9.489 2°36.223 14.2566 4.090782 33.655398 -3.020363
2011-05-19 09:05:56 51°9.477 2°36.184 14.2532 4.091093 33.658254 -3.020363
2011-05-19 09:06:56 51°9.462 2°36.147 14.2502 4.091301 33.660158 -3.020363
2011-05-19 09:07:56 51°9.448 2°36.108 14.2637 4.091404 33.656736 -3.020363
2011-05-19 09:08:56 51°9.433 2°36.07 14.2624 4.09213 33.6634 -3.020363
2011-05-19 09:09:56 51°9.418 2°36.031 14.2555 4.092752 33.658179 -3.020363
2011-05-19 09:10:56 51°9.402 2°35.993 14.2727 4.092959 33.672475 -3.020363
2011-05-19 09:11:56 51°9.386 2°35.952 14.2504 4.093684 33.668931 -3.020363
2011-05-19 09:12:56 51°9.37 2°35.912 14.2556 4.092337 33.66895 -3.020363
2011-05-19 09:13:56 51°9.353 2°35.873 14.2668 4.092855 33.671523 -3.020363
2011-05-19 09:14:56 51°9.337 2°35.834 14.2495 4.093374 33.677012 -3.020363
2011-05-19 09:15:56 51°9.321 2°35.795 14.2807 4.092959 33.671746 -3.020363
2011-05-19 09:16:56 51°9.305 2°35.753 14.2638 4.094514 33.67363 -3.020363
2011-05-19 09:17:56 51°9.288 2°35.717 14.2659 4.093892 33.672293 -3.020363
2011-05-19 09:18:56 51°9.272 2°35.679 14.2477 4.093063 33.664678 -3.020363
2011-05-19 09:19:56 51°9.256 2°35.64 14.2524 4.093166 33.678026 -3.020363
2011-05-19 09:20:56 51°9.239 2°35.603 14.2569 4.09213 33.664129 -3.020363
2011-05-19 09:21:56 51°9.224 2°35.564 14.2683 4.093581 33.673083 -3.020363
2011-05-19 09:22:56 51°9.208 2°35.525 14.2588 4.093166 33.663444 -3.020363
2011-05-19 09:23:56 51°9.192 2°35.485 14.2654 4.093063 33.665407 -3.020363
2011-05-19 09:24:56 51°9.177 2°35.445 14.2724 4.092855 33.65986 -3.020363
2011-05-19 09:25:56 51°9.162 2°35.405 14.2689 4.09441 33.666848 -3.020363
2011-05-19 09:26:56 51°9.147 2°35.365 14.2641 4.093684 33.662373 -3.020363
2011-05-19 09:27:56 51°9.131 2°35.325 14.2566 4.093788 33.670612 -3.020363
2011-05-19 09:28:56 51°9.116 2°35.285 14.2796 4.093892 33.675938 -3.020363
2011-05-19 09:29:56 51°9.101 2°35.245 14.277 4.095446 33.66762 -3.020363
2011-05-19 09:30:56 51°9.075 2°35.237 14.2858 4.095654 33.668066 -3.020363
2011-05-19 09:31:56 51°9.097 2°35.286 14.3025 4.095135 33.664038 -3.020363
2011-05-19 09:32:56 51°9.192 2°35.362 14.2686 4.095653 33.6586 -3.020363
2011-05-19 09:33:56 51°9.256 2°35.472 14.2563 4.095447 33.67928 -3.020363
2011-05-19 09:34:56 51°9.276 2°35.564 14.266 4.09441 33.679969 -3.020363
2011-05-19 09:35:56 51°9.283 2°35.635 14.2913 4.094514 33.672172 -3.020363
2011-05-19 09:36:56 51°9.296 2°35.697 14.2959 4.09555 33.665658 -3.020363
2011-05-19 09:37:56 51°9.298 2°35.766 14.2957 4.095654 33.666609 -3.020363
2011-05-19 09:38:56 51°9.266 2°35.839 14.3222 4.095653 33.656416 -3.020363
2011-05-19 09:39:57 51°9.199 2°35.886 14.3697 4.09586 33.633589 -3.020363
2011-05-19 09:40:56 51°9.116 2°35.882 14.4219 4.096378 33.587544 -3.020363
2011-05-19 09:41:57 51°9.036 2°35.828 14.437 4.09731 33.565678 -3.020363
2011-05-19 09:42:56 51°8.974 2°35.742 14.454 4.097414 33.549278 -3.020363
2011-05-19 09:43:55 51°8.928 2°35.636 14.4578 4.097932 33.545348 -3.020363
2011-05-19 09:44:56 51°8.889 2°35.515 14.453 4.097828 33.541512 -3.020363
2011-05-19 09:45:56 51°8.859 2°35.393 14.4654 4.097828 33.543678 -3.020363
2011-05-19 09:46:56 51°8.842 2°35.269 14.4658 4.09845 33.546473 -3.020363
2011-05-19 09:47:55 51°8.828 2°35.149 14.453 4.099176 33.549493 -3.020363
2011-05-19 09:48:55 51°8.812 2°35.028 14.4509 4.098968 33.556988 -3.020363
2011-05-19 09:49:56 51°8.793 2°34.904 14.4431 4.09959 33.563395 -3.020363
2011-05-19 09:50:56 51°8.774 2°34.781 14.4318 4.09959 33.568454 -3.020363
2011-05-19 09:51:57 51°8.751 2°34.656 14.4298 4.100316 33.585213 -3.020363
2011-05-19 09:52:56 51°8.728 2°34.536 14.4091 4.101249 33.595915 -3.020363
2011-05-19 09:53:55 51°8.705 2°34.418 14.3628 4.101042 33.620095 -3.020363
2011-05-19 09:54:56 51°8.681 2°34.297 14.3438 4.100006 33.64035 -3.020363
2011-05-19 09:55:57 51°8.658 2°34.176 14.3433 4.099073 33.644876 -3.020363
2011-05-19 09:56:55 51°8.639 2°34.062 14.321 4.099384 33.65572 -3.020363
2011-05-19 09:57:56 51°8.625 2°33.942 14.2791 4.099074 33.668143 -3.020363
2011-05-19 09:58:55 51°8.612 2°33.828 14.2668 4.097519 33.687378 -3.020363
2011-05-19 09:59:55 51°8.587 2°33.717 14.2529 4.097001 33.695744 -3.020363
2011-05-19 10:00:55 51°8.556 2°33.608 14.262 4.096794 33.696758 -3.020363
2011-05-19 10:01:55 51°8.528 2°33.498 14.2603 4.09669 33.696536 -3.020363
2011-05-19 10:02:56 51°8.505 2°33.385 14.259 4.096483 33.693902 -3.020363
2011-05-19 10:03:55 51°8.486 2°33.275 14.2667 4.096379 33.69295 -3.020363
2011-05-19 10:04:56 51°8.481 2°33.165 14.2613 4.096898 33.694063 -3.020363
2011-05-19 10:05:55 51°8.488 2°33.07 14.2612 4.097001 33.697203 -3.020363
2011-05-19 10:06:55 51°8.502 2°32.974 14.2414 4.097001 33.70304 -3.020363
2011-05-19 10:07:56 51°8.521 2°32.877 14.2443 4.096691 33.708212 -3.020363
2011-05-19 10:08:55 51°8.543 2°32.785 14.2425 4.096794 33.711355 -3.020363
2011-05-19 10:09:55 51°8.565 2°32.701 14.2476 4.09638 33.706816 -3.020363
2011-05-19 10:10:55 51°8.579 2°32.645 14.2248 4.095758 33.696723 -3.020363
2011-05-19 10:11:55 51°8.586 2°32.596 14.2428 4.094514 33.707928 -3.020363
2011-05-19 10:12:55 51°8.587 2°32.548 14.261 4.096069 33.700309 -3.020363
2011-05-19 10:13:55 51°8.607 2°32.499 14.2613 4.097209 33.702755 -3.020363
2011-05-19 10:14:56 51°8.663 2°32.535 14.2413 4.098245 33.710815 -3.020363
2011-05-19 10:15:56 51°8.78 2°32.685 14.2288 4.097313 33.719769 -3.020363
2011-05-19 10:16:56 51°8.913 2°32.908 14.1892 4.096277 33.737287 -3.020363
2011-05-19 10:17:56 51°9.032 2°33.153 14.1018 4.094412 33.773597 -3.020363
2011-05-19 10:18:55 51°9.166 2°33.369 14.1489 4.094619 33.816648 -3.020363
2011-05-19 10:19:56 51°9.295 2°33.61 14.1403 4.095863 33.795773 -3.020363
2011-05-19 10:20:55 51°9.431 2°33.833 14.072 4.095863 33.823704 -3.020363
2011-05-19 10:21:56 51°9.562 2°34.078 14.0802 4.092547 33.835074 -3.020363
2011-05-19 10:22:56 51°9.7 2°34.309 14.0855 4.09234 33.823583 -3.020363
2011-05-19 10:23:56 51°9.827 2°34.555 14.0739 4.09234 33.826529 -3.020363
2011-05-19 10:24:55 51°9.959 2°34.785 14.0642 4.09151 33.828453 -3.020363
2011-05-19 10:25:56 51°10.087 2°35.035 14.0628 4.091096 33.827574 -3.020363
2011-05-19 10:26:56 51°10.212 2°35.282 14.0623 4.090474 33.82478 -3.020363
2011-05-19 10:27:55 51°10.333 2°35.527 14.0566 4.090785 33.826914 -3.020363
2011-05-19 10:28:55 51°10.457 2°35.772 14.0655 4.090267 33.828025 -3.020363
2011-05-19 10:29:55 51°10.576 2°36.023 14.0741 4.089437 33.812999 -3.020363
2011-05-19 10:30:55 51°10.7 2°36.267 14.0937 4.088297 33.79143 -3.020363
2011-05-19 10:31:56 51°10.817 2°36.526 14.0972 4.089126 33.786574 -3.020363
2011-05-19 10:32:56 51°10.924 2°36.791 14.1061 4.089437 33.78503 -3.020363
2011-05-19 10:33:56 51°11.04 2°37.046 14.1186 4.090059 33.782679 -3.020363
2011-05-19 10:34:55 51°11.145 2°37.308 14.1316 4.090888 33.777831 -3.020363
2011-05-19 10:35:56 51°11.262 2°37.569 14.1483 4.091302 33.769168 -3.020363
2011-05-19 10:36:55 51°11.368 2°37.832 14.1671 4.092028 33.762642 -3.020363
2011-05-19 10:37:56 51°11.489 2°38.089 14.1871 4.092338 33.751571 -3.020363
2011-05-19 10:38:56 51°11.599 2°38.352 14.2217 4.09182 33.72336 -3.020363
2011-05-19 10:39:55 51°11.704 2°38.613 14.2514 4.089643 33.676291 -3.020363
2011-05-19 10:40:55 51°11.814 2°38.877 14.2764 4.087466 33.632218 -3.020363
2011-05-19 10:41:56 51°11.921 2°39.151 14.3045 4.085289 33.591121 -3.020363
2011-05-19 10:42:55 51°12.026 2°39.412 14.3415 4.083837 33.549479 -3.020363
2011-05-19 10:43:56 51°12.133 2°39.682 14.3735 4.081971 33.504113 -3.020363
2011-05-19 10:44:55 51°12.238 2°39.942 14.4077 4.080208 33.459057 -3.020363
2011-05-19 10:45:56 51°12.347 2°40.21 14.4331 4.077202 33.404151 -3.020363
2011-05-19 10:46:56 51°12.448 2°40.483 14.4463 4.07544 33.369332 -3.020363
2011-05-19 10:47:55 51°12.558 2°40.737 14.467 4.073678 33.338863 -3.020363
2011-05-19 10:48:55 51°12.658 2°41.009 14.4832 4.07233 33.310774 -3.020363
2011-05-19 10:49:56 51°12.771 2°41.274 14.4982 4.071708 33.29005 -3.020363
2011-05-19 10:50:55 51°12.869 2°41.542 14.5035 4.071189 33.276016 -3.020363
2011-05-19 10:51:55 51°12.98 2°41.803 14.5194 4.070878 33.267456 -3.020363
2011-05-19 10:52:56 51°13.082 2°42.081 14.5205 4.072226 33.267586 -3.020363
2011-05-19 10:53:56 51°13.194 2°42.345 14.5276 4.072951 33.271341 -3.020363
2011-05-19 10:54:56 51°13.295 2°42.619 14.5378 4.073262 33.268457 -3.020363
2011-05-19 10:55:56 51°13.41 2°42.877 14.548 4.07378 33.26389 -3.020363
2011-05-19 10:56:55 51°13.506 2°43.151 14.5421 4.073573 33.254858 -3.020363
2011-05-19 10:57:56 51°13.585 2°43.453 14.5529 4.072122 33.245921 -3.020363
2011-05-19 10:58:56 51°13.67 2°43.745 14.5616 4.073365 33.250828 -3.020363
2011-05-19 10:59:56 51°13.717 2°44.061 14.5682 4.074194 33.249815 -3.020363
2011-05-19 11:00:56 51°13.78 2°44.377 14.6028 4.076889 33.262225 -3.020363
2011-05-19 11:01:55 51°13.827 2°44.696 14.6122 4.079687 33.263446 -3.020363
2011-05-19 11:02:56 51°13.888 2°45.016 14.6503 4.079065 33.244246 -3.020363
2011-05-19 11:03:56 51°13.936 2°45.337 14.6406 4.079272 33.221218 -3.020363
2011-05-19 11:04:56 51°13.996 2°45.65 14.6314 4.075852 33.199371 -3.020363
2011-05-19 11:05:56 51°14.049 2°45.966 14.6273 4.073675 33.181717 -3.020363
2011-05-19 11:06:55 51°14.067 2°46.287 14.6329 4.071706 33.168788 -3.020363
2011-05-19 11:07:56 51°14.029 2°46.618 14.6546 4.070877 33.154148 -3.020363
2011-05-19 11:08:56 51°13.938 2°46.927 14.6826 4.071291 33.139466 -3.020363
2011-05-19 11:09:56 51°13.839 2°47.11 14.7348 4.071498 33.112297 -3.020363
2011-05-19 11:10:56 51°13.793 2°47.174 14.7858 4.068699 33.044519 -3.020363
2011-05-19 11:11:55 51°13.782 2°47.179 14.8096 4.067247 32.993341 -3.020363
2011-05-19 11:12:56 51°13.773 2°47.172 14.8207 4.066521 32.968503 -3.020363
2011-05-19 11:13:56 51°13.764 2°47.167 14.8152 4.06507 32.937134 -3.020363
2011-05-19 11:14:55 51°13.755 2°47.163 14.8031 4.062271 32.916741 -3.020363
2011-05-19 11:15:56 51°13.744 2°47.16 14.7978 4.061339 32.915316 -3.020363
2011-05-19 11:16:56 51°13.733 2°47.158 14.808 4.060924 32.914371 -3.020363
2011-05-19 11:17:56 51°13.721 2°47.156 14.8497 4.061857 32.910189 -3.020363
2011-05-19 11:18:56 51°13.707 2°47.154 14.8772 4.064344 32.900459 -3.020363
2011-05-19 11:19:56 51°13.694 2°47.151 14.9022 4.066313 32.894464 -3.020363
2011-05-19 11:20:56 51°13.682 2°47.148 14.9323 4.067245 32.877736 -3.020363
2011-05-19 11:21:56 51°13.669 2°47.146 14.9344 4.06683 32.86702 -3.020363
2011-05-19 11:22:55 51°13.658 2°47.144 14.9596 4.067037 32.8431 -3.020363
2011-05-19 11:23:56 51°13.648 2°47.14 14.9911 4.06797 32.843148 -3.020363
2011-05-19 11:24:56 51°13.637 2°47.136 15.0301 4.069628 32.814965 -3.020363
2011-05-19 11:25:55 51°13.627 2°47.133 14.9962 4.069835 32.816135 -3.020363
2011-05-19 11:26:56 51°13.618 2°47.129 15.019 4.067969 32.811852 -3.020363
2011-05-19 11:27:56 51°13.608 2°47.125 15.0479 4.069213 32.795271 -3.020363
2011-05-19 11:28:56 51°13.6 2°47.122 15.0302 4.071078 32.785696 -3.020363
2011-05-19 11:29:55 51°13.592 2°47.119 15.1501 4.070042 32.811751 -3.020363
2011-05-19 11:30:56 51°13.584 2°47.116 15.1901 4.076985 32.759189 -3.020363
2011-05-19 11:31:56 51°13.577 2°47.113 15.2241 4.079472 32.761472 -3.020363
2011-05-19 11:32:56 51°13.569 2°47.11 15.265 4.082892 32.74937 -3.020363
2011-05-19 11:33:56 51°13.562 2°47.108 15.3058 4.086312 32.751753 -3.020363
2011-05-19 11:34:55 51°13.554 2°47.109 15.2308 4.088696 32.75725 -3.020363
2011-05-19 11:35:56 51°13.505 2°47.18 15.1365 4.081649 32.776836 -3.020363
2011-05-19 11:36:56 51°13.423 2°47.331 14.9452 4.074809 32.765224 -3.020363
2011-05-19 11:37:56 51°13.282 2°47.37 15.0392 4.058953 32.753603 -3.020363
2011-05-19 11:38:56 51°13.207 2°47.179 15.0638 4.063823 32.728121 -3.020363
2011-05-19 11:39:55 51°13.286 2°47.056 15.0087 4.067968 32.746686 -3.020363
2011-05-19 11:40:55 51°13.37 2°47.091 14.9749 4.062476 32.745088 -3.020363
2011-05-19 11:41:55 51°13.455 2°47.215 14.9387 4.058538 32.757506 -3.020363
2011-05-19 11:42:55 51°13.477 2°47.332 14.98 4.059367 32.765667 -3.020363
2011-05-19 11:43:55 51°13.485 2°47.433 14.9879 4.059782 32.779128 -3.020363
2011-05-19 11:44:56 51°13.498 2°47.532 14.9565 4.061647 32.761897 -3.020363
2011-05-19 11:45:55 51°13.514 2°47.621 14.9265 4.059264 32.762651 -3.020363
2011-05-19 11:46:56 51°13.527 2°47.713 14.934 4.056051 32.758718 -3.020363
2011-05-19 11:47:55 51°13.54 2°47.804 14.9538 4.056776 32.745806 -3.020363
2011-05-19 11:48:55 51°13.56 2°47.895 15.0226 4.057605 32.744249 -3.020363
2011-05-19 11:49:55 51°13.585 2°47.986 15.0428 4.06289 32.737733 -3.020363
2011-05-19 11:50:56 51°13.611 2°48.078 15.0112 4.064548 32.739485 -3.020363
2011-05-19 11:51:56 51°13.634 2°48.175 14.9791 4.061232 32.742218 -3.020363
2011-05-19 11:52:55 51°13.655 2°48.27 14.9778 4.059263 32.741833 -3.020363
2011-05-19 11:53:56 51°13.685 2°48.36 15.0194 4.060196 32.74884 -3.020363
2011-05-19 11:54:55 51°13.721 2°48.442 15.0527 4.063098 32.742367 -3.020363
2011-05-19 11:55:55 51°13.761 2°48.523 15.0786 4.065585 32.738417 -3.020363
2011-05-19 11:56:56 51°13.8 2°48.607 15.1701 4.068901 32.731557 -3.020363
2011-05-19 11:57:56 51°13.841 2°48.688 15.1835 4.077814 32.754889 -3.020363
2011-05-19 11:58:55 51°13.881 2°48.766 15.1896 4.081545 32.784881 -3.020363
2011-05-19 11:59:56 51°13.925 2°48.841 15.1792 4.078746 32.746695 -3.020363
2011-05-19 12:00:56 51°13.971 2°48.912 15.2224 4.075637 32.716087 -3.020363
2011-05-19 12:01:56 51°14.017 2°48.984 15.2198 4.077813 32.710108 -3.020363
2011-05-19 12:02:55 51°14.062 2°49.056 15.1961 4.07688 32.70795 -3.020363
2011-05-19 12:03:56 51°14.108 2°49.134 15.1878 4.07574 32.713572 -3.020363
2011-05-19 12:04:56 51°14.152 2°49.212 15.3044 4.077502 32.713517 -3.020363
2011-05-19 12:05:56 51°14.196 2°49.291 15.3795 4.089006 32.71745 -3.020363
2011-05-19 12:06:56 51°14.237 2°49.375 15.1118 4.097298 32.767457 -3.020363
2011-05-19 12:07:55 51°14.276 2°49.461 15.049 4.0916 32.932597 -3.020363
2011-05-19 12:08:56 51°14.316 2°49.548 15.0561 4.087973 32.938253 -3.020363
2011-05-19 12:09:55 51°14.354 2°49.628 15.0508 4.088906 32.93968 -3.020363
2011-05-19 12:10:55 51°14.392 2°49.708 15.0485 4.087973 32.938253 -3.020363
2011-05-19 12:11:55 51°14.431 2°49.784 15.2454 4.087766 32.937085 -3.020363
2011-05-19 12:12:55 51°14.472 2°49.855 15.3725 4.088178 32.764998 -3.020363
2011-05-19 12:13:55 51°14.507 2°49.929 15.3554 4.092323 32.732657 -3.020363
2011-05-19 12:14:56 51°14.537 2°50.006 15.4194 4.089731 32.700624 -3.020363
2011-05-19 12:15:55 51°14.563 2°50.079 15.4356 4.090249 32.656011 -3.020363
2011-05-19 12:16:56 51°14.589 2°50.155 15.4246 4.089627 32.642964 -3.020363
2011-05-19 12:17:56 51°14.61 2°50.237 15.2791 4.088279 32.641198 -3.020363
2011-05-19 12:18:56 51°14.618 2°50.329 15.2175 4.08144 32.702006 -3.020363
2011-05-19 12:19:56 51°14.606 2°50.469 15.3097 4.076155 32.711778 -3.020363
2011-05-19 12:20:55 51°14.616 2°50.622 15.361 4.078434 32.634022 -3.020363
2011-05-19 12:21:56 51°14.641 2°50.722 15.3216 4.083097 32.629147 -3.020363
2011-05-19 12:22:55 51°14.666 2°50.793 15.3154 4.076568 32.625576 -3.020363
2011-05-19 12:23:56 51°14.688 2°50.853 15.3029 4.075117 32.616041 -3.020363
2011-05-19 12:24:56 51°14.711 2°50.961 15.2602 4.073148 32.614192 -3.020363
2011-05-19 12:25:56 51°14.685 2°51.094 15.2285 4.069314 32.631995 -3.020363
2011-05-19 12:26:55 51°14.662 2°51.169 15.2175 4.065894 32.611684 -3.020363
2011-05-19 12:27:55 51°14.618 2°51.197 15.2196 4.064132 32.604835 -3.020363
2011-05-19 12:28:56 51°14.589 2°51.138 15.189 4.062577 32.595036 -3.020363
2011-05-19 12:29:56 51°14.591 2°51.102 15.1914 4.061126 32.599201 -3.020363
2011-05-19 12:30:55 51°14.604 2°51.084 15.1883 4.061437 32.604045 -3.020363
2011-05-19 12:31:56 51°14.622 2°51.078 15.174 4.062059 32.610301 -3.020363
2011-05-19 12:32:56 51°14.64 2°51.083 15.1623 4.061956 32.621052 -3.020363
2011-05-19 12:33:56 51°14.657 2°51.094 15.1699 4.061749 32.625381 -3.020363
2011-05-19 12:34:55 51°14.674 2°51.111 15.1808 4.062474 32.625695 -3.020363
2011-05-19 12:35:56 51°14.69 2°51.13 15.1832 4.063096 32.626455 -3.020363
2011-05-19 12:36:56 51°14.707 2°51.152 15.1897 4.06351 32.625358 -3.020363
2011-05-19 12:37:56 51°14.723 2°51.175 15.1928 4.063925 32.62701 -3.020363
2011-05-19 12:38:56 51°14.74 2°51.205 15.2 4.064547 32.62777 -3.020363
2011-05-19 12:39:55 51°14.755 2°51.236 15.2019 4.062474 32.603028 -3.020363
2011-05-19 12:40:56 51°14.768 2°51.267 15.2015 4.065376 32.629699 -3.020363
2011-05-19 12:41:56 51°14.78 2°51.298 15.201 4.065479 32.62994 -3.020363
2011-05-19 12:42:55 51°14.792 2°51.328 15.1987 4.065272 32.630145 -3.020363
2011-05-19 12:43:56 51°14.805 2°51.361 15.1955 4.065479 32.632001 -3.020363
2011-05-19 12:44:56 51°14.818 2°51.395 15.1912 4.065479 32.636811 -3.020363
2011-05-19 12:45:56 51°14.829 2°51.428 15.1925 4.065376 32.635195 -3.020363
2011-05-19 12:46:56 51°14.839 2°51.461 15.1851 4.065376 32.637257 -3.020363
2011-05-19 12:47:55 51°14.85 2°51.49 15.1606 4.064961 32.640418 -3.020363
2011-05-19 12:48:56 51°14.886 2°51.492 15.2038 4.063718 32.647844 -3.020363
2011-05-19 12:49:56 51°14.955 2°51.574 15.2122 4.067034 32.63699 -3.020363
2011-05-19 12:50:55 51°14.972 2°51.814 15.2649 4.069003 32.638822 -3.020363
2011-05-19 12:51:55 51°14.979 2°52.164 15.2213 4.071076 32.630606 -3.020363
2011-05-19 12:52:55 51°14.962 2°52.523 15.1911 4.065169 32.635401 -3.020363
2011-05-19 12:53:55 51°14.947 2°52.885 15.1901 4.059986 32.584189 -3.020363
2011-05-19 12:54:55 51°14.941 2°53.262 15.1347 4.05325 32.544438 -3.020363
2011-05-19 12:55:56 51°14.915 2°53.643 15.1367 4.0433 32.499169 -3.020363
2011-05-19 12:56:55 51°14.872 2°54.001 15.3297 4.04216 32.461551 -3.020363
2011-05-19 12:57:55 51°14.806 2°54.35 15.2536 4.040292 32.305291 -3.020363
2011-05-19 12:58:55 51°14.713 2°54.681 15.4513 0.128876 0.799489 -3.020363
2011-05-19 12:59:56 51°14.577 2°54.965 15.5463 0.069649 0.421169 -3.020363
2011-05-19 13:00:56 51°14.405 2°55.157 15.6089 0.057413 0.344826 -3.020363
2011-05-19 13:01:57 51°14.238 2°55.31 15.6797 0.050936 0.304699 -3.020363
2011-05-19 13:02:56 51°14.096 2°55.432 15.746 0.047029 0.280587 -3.020363
2011-05-19 13:03:56 51°13.971 2°55.523 15.8213 0.044047 0.26224 -3.020363
2011-05-19 13:04:56 51°13.878 2°55.591 15.9355 0.041785 0.248348 -3.020363
2011-05-19 13:05:56 51°13.807 2°55.647 15.9891 0.039832 0.236373 -3.020363
2011-05-19 13:06:56 51°13.757 2°55.713 16.1183 0.03829 0.226925 -3.020363
2011-05-19 13:07:56 51°13.725 2°55.77 16.1931 0.036953 0.218746 -3.020363
2011-05-19 13:08:55 51°13.707 2°55.812 16.2787 0.035719 0.21121 -3.020363
2011-05-19 13:09:56 51°13.679 2°55.879 16.4014 0.034794 0.205547 -3.020363
2011-05-19 13:10:55 51°13.65 2°55.954 16.4561 0.033869 0.199892 -3.020363
2011-05-19 13:11:55 51°13.635 2°56.014 16.628 0.033149 0.195484 -3.020363
2011-05-19 13:12:59 51°13.636 2°56.016 16.6992 0.032429 0.191085 -3.020363